sensor_id;sensor_type;location;lat;lon;timestamp;temperature;humidity
38910;DHT22;24676;51.360;12.354;2023-09-18T00:01:39;20.80;95.90
38910;DHT22;24676;51.360;12.354;2023-09-18T00:04:25;20.70;95.80
38910;DHT22;24676;51.360;12.354;2023-09-18T00:07:10;20.70;95.70
38910;DHT22;24676;51.360;12.354;2023-09-18T00:09:55;20.80;95.70
38910;DHT22;24676;51.360;12.354;2023-09-18T00:12:39;20.80;95.70
38910;DHT22;24676;51.360;12.354;2023-09-18T00:15:24;20.80;95.60
38910;DHT22;24676;51.360;12.354;2023-09-18T00:18:09;20.80;95.60
38910;DHT22;24676;51.360;12.354;2023-09-18T00:20:53;20.80;95.60
38910;DHT22;24676;51.360;12.354;2023-09-18T00:23:37;20.70;95.80
38910;DHT22;24676;51.360;12.354;2023-09-18T00:26:21;20.70;96.20
38910;DHT22;24676;51.360;12.354;2023-09-18T00:29:05;20.70;96.50
38910;DHT22;24676;51.360;12.354;2023-09-18T00:31:49;20.60;96.80
38910;DHT22;24676;51.360;12.354;2023-09-18T00:34:34;20.60;97.10
38910;DHT22;24676;51.360;12.354;2023-09-18T00:37:18;20.50;97.20
38910;DHT22;24676;51.360;12.354;2023-09-18T00:40:03;20.50;97.40
38910;DHT22;24676;51.360;12.354;2023-09-18T00:42:48;20.50;97.50
38910;DHT22;24676;51.360;12.354;2023-09-18T00:45:32;20.50;97.70
38910;DHT22;24676;51.360;12.354;2023-09-18T00:48:17;20.50;98.10
38910;DHT22;24676;51.360;12.354;2023-09-18T00:51:01;20.40;98.60
38910;DHT22;24676;51.360;12.354;2023-09-18T00:53:46;20.40;99.00
38910;DHT22;24676;51.360;12.354;2023-09-18T00:56:34;20.30;99.40
38910;DHT22;24676;51.360;12.354;2023-09-18T00:59:18;20.20;99.90
38910;DHT22;24676;51.360;12.354;2023-09-18T01:02:03;20.20;99.90
38910;DHT22;24676;51.360;12.354;2023-09-18T01:04:48;20.20;99.90
38910;DHT22;24676;51.360;12.354;2023-09-18T01:07:33;20.20;99.90
38910;DHT22;24676;51.360;12.354;2023-09-18T01:10:17;20.20;99.90
38910;DHT22;24676;51.360;12.354;2023-09-18T01:15:54;20.20;99.90
38910;DHT22;24676;51.360;12.354;2023-09-18T01:18:38;20.20;99.90
38910;DHT22;24676;51.360;12.354;2023-09-18T01:21:22;20.10;99.90
38910;DHT22;24676;51.360;12.354;2023-09-18T01:24:07;20.00;99.90
38910;DHT22;24676;51.360;12.354;2023-09-18T01:26:51;19.90;99.90
38910;DHT22;24676;51.360;12.354;2023-09-18T01:29:34;19.80;99.90
38910;DHT22;24676;51.360;12.354;2023-09-18T01:32:19;19.80;99.90
38910;DHT22;24676;51.360;12.354;2023-09-18T01:35:03;19.70;99.90
38910;DHT22;24676;51.360;12.354;2023-09-18T01:37:50;19.60;99.90
38910;DHT22;24676;51.360;12.354;2023-09-18T01:40:34;19.60;99.90
38910;DHT22;24676;51.360;12.354;2023-09-18T01:43:18;19.50;99.90
38910;DHT22;24676;51.360;12.354;2023-09-18T01:46:03;19.50;99.90
38910;DHT22;24676;51.360;12.354;2023-09-18T01:48:47;19.50;99.90
38910;DHT22;24676;51.360;12.354;2023-09-18T01:51:32;19.40;99.90
38910;DHT22;24676;51.360;12.354;2023-09-18T01:54:16;19.40;99.90
38910;DHT22;24676;51.360;12.354;2023-09-18T01:57:01;19.30;99.90
38910;DHT22;24676;51.360;12.354;2023-09-18T01:59:46;19.30;99.90
38910;DHT22;24676;51.360;12.354;2023-09-18T02:02:30;19.20;99.90
38910;DHT22;24676;51.360;12.354;2023-09-18T02:05:15;19.10;99.90
38910;DHT22;24676;51.360;12.354;2023-09-18T02:07:59;19.10;99.90
38910;DHT22;24676;51.360;12.354;2023-09-18T02:10:43;19.00;99.90
38910;DHT22;24676;51.360;12.354;2023-09-18T02:13:27;19.00;99.90
38910;DHT22;24676;51.360;12.354;2023-09-18T02:16:11;18.90;99.90
38910;DHT22;24676;51.360;12.354;2023-09-18T02:18:55;18.90;99.90
38910;DHT22;24676;51.360;12.354;2023-09-18T02:21:41;18.80;99.90
38910;DHT22;24676;51.360;12.354;2023-09-18T02:24:25;18.70;99.90
38910;DHT22;24676;51.360;12.354;2023-09-18T02:27:09;18.70;99.90
38910;DHT22;24676;51.360;12.354;2023-09-18T02:29:54;18.70;99.90
38910;DHT22;24676;51.360;12.354;2023-09-18T02:32:38;18.60;99.90
38910;DHT22;24676;51.360;12.354;2023-09-18T02:35:22;18.60;99.90
38910;DHT22;24676;51.360;12.354;2023-09-18T02:38:06;18.50;99.90
38910;DHT22;24676;51.360;12.354;2023-09-18T02:40:50;18.50;99.90
38910;DHT22;24676;51.360;12.354;2023-09-18T02:43:35;18.50;99.90
38910;DHT22;24676;51.360;12.354;2023-09-18T02:46:22;18.50;99.90
38910;DHT22;24676;51.360;12.354;2023-09-18T02:49:06;18.50;99.90
38910;DHT22;24676;51.360;12.354;2023-09-18T02:51:50;18.50;99.90
38910;DHT22;24676;51.360;12.354;2023-09-18T02:54:35;18.50;99.90
38910;DHT22;24676;51.360;12.354;2023-09-18T02:57:19;18.40;99.90
38910;DHT22;24676;51.360;12.354;2023-09-18T03:00:04;18.30;99.90
38910;DHT22;24676;51.360;12.354;2023-09-18T03:02:48;18.30;99.90
38910;DHT22;24676;51.360;12.354;2023-09-18T03:05:32;18.20;99.90
38910;DHT22;24676;51.360;12.354;2023-09-18T03:08:16;18.00;99.90
38910;DHT22;24676;51.360;12.354;2023-09-18T03:11:00;17.90;99.90
38910;DHT22;24676;51.360;12.354;2023-09-18T03:13:46;17.70;99.90
38910;DHT22;24676;51.360;12.354;2023-09-18T03:16:30;17.60;99.90
38910;DHT22;24676;51.360;12.354;2023-09-18T03:19:17;17.60;99.90
38910;DHT22;24676;51.360;12.354;2023-09-18T03:22:01;17.50;99.90
38910;DHT22;24676;51.360;12.354;2023-09-18T03:24:45;17.50;99.90
38910;DHT22;24676;51.360;12.354;2023-09-18T03:27:30;17.50;99.90
38910;DHT22;24676;51.360;12.354;2023-09-18T03:30:15;17.40;99.90
38910;DHT22;24676;51.360;12.354;2023-09-18T03:32:59;17.50;99.90
38910;DHT22;24676;51.360;12.354;2023-09-18T03:35:48;17.50;99.90
38910;DHT22;24676;51.360;12.354;2023-09-18T03:38:33;17.50;99.90
38910;DHT22;24676;51.360;12.354;2023-09-18T03:41:19;17.50;99.90
38910;DHT22;24676;51.360;12.354;2023-09-18T03:44:03;17.50;99.90
38910;DHT22;24676;51.360;12.354;2023-09-18T03:46:47;17.50;99.90
38910;DHT22;24676;51.360;12.354;2023-09-18T03:49:32;17.50;99.90
38910;DHT22;24676;51.360;12.354;2023-09-18T03:52:16;17.50;99.90
38910;DHT22;24676;51.360;12.354;2023-09-18T03:55:00;17.60;99.90
38910;DHT22;24676;51.360;12.354;2023-09-18T03:57:44;17.60;99.90
38910;DHT22;24676;51.360;12.354;2023-09-18T04:00:31;17.50;99.90
38910;DHT22;24676;51.360;12.354;2023-09-18T04:03:15;17.60;99.90
38910;DHT22;24676;51.360;12.354;2023-09-18T04:05:59;17.60;99.90
38910;DHT22;24676;51.360;12.354;2023-09-18T04:08:43;17.60;99.90
38910;DHT22;24676;51.360;12.354;2023-09-18T04:11:27;17.50;99.90
38910;DHT22;24676;51.360;12.354;2023-09-18T04:14:12;17.50;99.90
38910;DHT22;24676;51.360;12.354;2023-09-18T04:16:56;17.50;99.90
38910;DHT22;24676;51.360;12.354;2023-09-18T04:19:40;17.50;99.90
38910;DHT22;24676;51.360;12.354;2023-09-18T04:22:24;17.40;99.90
38910;DHT22;24676;51.360;12.354;2023-09-18T04:25:09;17.40;99.90
38910;DHT22;24676;51.360;12.354;2023-09-18T04:27:53;17.40;99.90
38910;DHT22;24676;51.360;12.354;2023-09-18T04:30:38;17.40;99.90
38910;DHT22;24676;51.360;12.354;2023-09-18T04:33:22;17.40;99.90
38910;DHT22;24676;51.360;12.354;2023-09-18T04:36:06;17.50;99.90
38910;DHT22;24676;51.360;12.354;2023-09-18T04:38:50;17.50;99.90
38910;DHT22;24676;51.360;12.354;2023-09-18T04:41:35;17.50;99.90
38910;DHT22;24676;51.360;12.354;2023-09-18T04:44:19;17.50;99.90
38910;DHT22;24676;51.360;12.354;2023-09-18T04:47:03;17.50;99.90
38910;DHT22;24676;51.360;12.354;2023-09-18T04:49:48;17.50;99.90
38910;DHT22;24676;51.360;12.354;2023-09-18T04:52:33;17.50;99.90
38910;DHT22;24676;51.360;12.354;2023-09-18T04:55:17;17.40;99.90
38910;DHT22;24676;51.360;12.354;2023-09-18T04:58:01;17.40;99.90
38910;DHT22;24676;51.360;12.354;2023-09-18T05:00:45;17.40;99.90
38910;DHT22;24676;51.360;12.354;2023-09-18T05:03:30;17.40;99.90
38910;DHT22;24676;51.360;12.354;2023-09-18T05:06:15;17.50;99.90
38910;DHT22;24676;51.360;12.354;2023-09-18T05:09:00;17.50;99.90
38910;DHT22;24676;51.360;12.354;2023-09-18T05:11:44;17.50;99.90
38910;DHT22;24676;51.360;12.354;2023-09-18T05:14:29;17.50;99.90
38910;DHT22;24676;51.360;12.354;2023-09-18T05:17:17;17.50;99.90
38910;DHT22;24676;51.360;12.354;2023-09-18T05:20:01;17.50;99.90
38910;DHT22;24676;51.360;12.354;2023-09-18T05:22:48;17.60;99.90
38910;DHT22;24676;51.360;12.354;2023-09-18T05:25:34;17.60;99.90
38910;DHT22;24676;51.360;12.354;2023-09-18T05:28:21;17.70;99.90
38910;DHT22;24676;51.360;12.354;2023-09-18T05:31:06;17.70;99.90
38910;DHT22;24676;51.360;12.354;2023-09-18T05:33:50;17.70;99.90
38910;DHT22;24676;51.360;12.354;2023-09-18T05:36:35;17.80;99.90
38910;DHT22;24676;51.360;12.354;2023-09-18T05:39:19;17.90;99.90
38910;DHT22;24676;51.360;12.354;2023-09-18T05:42:04;17.90;99.90
38910;DHT22;24676;51.360;12.354;2023-09-18T05:44:49;17.90;99.90
38910;DHT22;24676;51.360;12.354;2023-09-18T05:47:33;18.00;99.90
38910;DHT22;24676;51.360;12.354;2023-09-18T05:50:20;18.10;99.90
38910;DHT22;24676;51.360;12.354;2023-09-18T05:53:04;18.20;99.90
38910;DHT22;24676;51.360;12.354;2023-09-18T05:55:48;18.30;99.90
38910;DHT22;24676;51.360;12.354;2023-09-18T05:58:32;18.50;99.90
38910;DHT22;24676;51.360;12.354;2023-09-18T06:01:17;18.60;99.90
38910;DHT22;24676;51.360;12.354;2023-09-18T06:04:01;18.70;99.90
38910;DHT22;24676;51.360;12.354;2023-09-18T06:06:47;18.90;99.90
38910;DHT22;24676;51.360;12.354;2023-09-18T06:09:31;19.20;99.90
38910;DHT22;24676;51.360;12.354;2023-09-18T06:12:16;20.00;99.90
38910;DHT22;24676;51.360;12.354;2023-09-18T06:15:00;22.10;99.90
38910;DHT22;24676;51.360;12.354;2023-09-18T06:17:45;23.80;95.30
38910;DHT22;24676;51.360;12.354;2023-09-18T06:20:29;25.20;80.40
38910;DHT22;24676;51.360;12.354;2023-09-18T06:23:13;25.90;69.50
38910;DHT22;24676;51.360;12.354;2023-09-18T06:25:57;26.50;66.40
38910;DHT22;24676;51.360;12.354;2023-09-18T06:28:43;27.30;61.00
38910;DHT22;24676;51.360;12.354;2023-09-18T06:31:28;29.00;56.30
38910;DHT22;24676;51.360;12.354;2023-09-18T06:34:12;30.30;52.30
38910;DHT22;24676;51.360;12.354;2023-09-18T06:36:56;32.10;49.40
38910;DHT22;24676;51.360;12.354;2023-09-18T06:39:40;34.00;43.40
38910;DHT22;24676;51.360;12.354;2023-09-18T06:42:25;35.20;40.30
38910;DHT22;24676;51.360;12.354;2023-09-18T06:45:09;36.00;39.00
38910;DHT22;24676;51.360;12.354;2023-09-18T06:47:53;36.90;37.60
38910;DHT22;24676;51.360;12.354;2023-09-18T06:50:38;38.00;35.50
38910;DHT22;24676;51.360;12.354;2023-09-18T06:53:22;38.80;34.50
38910;DHT22;24676;51.360;12.354;2023-09-18T06:56:06;39.60;32.70
38910;DHT22;24676;51.360;12.354;2023-09-18T06:58:53;39.70;33.40
38910;DHT22;24676;51.360;12.354;2023-09-18T07:01:37;40.00;32.50
38910;DHT22;24676;51.360;12.354;2023-09-18T07:04:22;40.50;30.50
38910;DHT22;24676;51.360;12.354;2023-09-18T07:07:06;39.90;31.40
38910;DHT22;24676;51.360;12.354;2023-09-18T07:09:50;39.80;31.40
38910;DHT22;24676;51.360;12.354;2023-09-18T07:12:34;38.70;31.00
38910;DHT22;24676;51.360;12.354;2023-09-18T07:15:18;36.90;34.00
38910;DHT22;24676;51.360;12.354;2023-09-18T07:18:03;35.20;36.00
38910;DHT22;24676;51.360;12.354;2023-09-18T07:20:47;34.10;38.00
38910;DHT22;24676;51.360;12.354;2023-09-18T07:23:31;32.50;40.30
38910;DHT22;24676;51.360;12.354;2023-09-18T07:26:16;31.60;42.40
38910;DHT22;24676;51.360;12.354;2023-09-18T07:29:00;30.50;44.40
38910;DHT22;24676;51.360;12.354;2023-09-18T07:31:46;30.00;47.10
38910;DHT22;24676;51.360;12.354;2023-09-18T07:34:31;29.30;49.20
38910;DHT22;24676;51.360;12.354;2023-09-18T07:37:15;30.20;49.10
38910;DHT22;24676;51.360;12.354;2023-09-18T07:40:05;31.50;44.70
38910;DHT22;24676;51.360;12.354;2023-09-18T07:42:50;32.20;43.80
38910;DHT22;24676;51.360;12.354;2023-09-18T07:45:34;33.70;41.70
38910;DHT22;24676;51.360;12.354;2023-09-18T07:48:18;34.50;40.30
38910;DHT22;24676;51.360;12.354;2023-09-18T07:51:03;33.40;40.80
38910;DHT22;24676;51.360;12.354;2023-09-18T07:53:48;32.00;43.00
38910;DHT22;24676;51.360;12.354;2023-09-18T07:56:32;30.90;44.70
38910;DHT22;24676;51.360;12.354;2023-09-18T07:59:18;29.70;46.40
38910;DHT22;24676;51.360;12.354;2023-09-18T08:02:02;28.30;49.30
38910;DHT22;24676;51.360;12.354;2023-09-18T08:04:46;27.10;52.20
38910;DHT22;24676;51.360;12.354;2023-09-18T08:07:31;26.60;53.90
38910;DHT22;24676;51.360;12.354;2023-09-18T08:10:15;26.30;54.50
38910;DHT22;24676;51.360;12.354;2023-09-18T08:13:00;26.00;54.90
38910;DHT22;24676;51.360;12.354;2023-09-18T08:15:44;25.80;55.60
38910;DHT22;24676;51.360;12.354;2023-09-18T08:18:28;25.80;56.60
38910;DHT22;24676;51.360;12.354;2023-09-18T08:21:13;25.90;57.30
38910;DHT22;24676;51.360;12.354;2023-09-18T08:23:58;26.50;57.00
38910;DHT22;24676;51.360;12.354;2023-09-18T08:26:42;26.80;55.90
38910;DHT22;24676;51.360;12.354;2023-09-18T08:29:26;26.50;55.10
38910;DHT22;24676;51.360;12.354;2023-09-18T08:32:10;26.20;55.70
38910;DHT22;24676;51.360;12.354;2023-09-18T08:34:54;25.70;56.50
38910;DHT22;24676;51.360;12.354;2023-09-18T08:37:42;25.40;57.50
38910;DHT22;24676;51.360;12.354;2023-09-18T08:40:26;25.20;57.90
38910;DHT22;24676;51.360;12.354;2023-09-18T08:43:11;25.10;58.60
38910;DHT22;24676;51.360;12.354;2023-09-18T08:45:55;25.00;58.80
38910;DHT22;24676;51.360;12.354;2023-09-18T08:48:44;25.00;59.70
38910;DHT22;24676;51.360;12.354;2023-09-18T08:51:29;25.20;59.90
38910;DHT22;24676;51.360;12.354;2023-09-18T08:54:13;25.40;59.40
38910;DHT22;24676;51.360;12.354;2023-09-18T08:56:58;25.80;58.60
38910;DHT22;24676;51.360;12.354;2023-09-18T08:59:42;26.70;58.30
38910;DHT22;24676;51.360;12.354;2023-09-18T09:02:27;27.50;57.10
38910;DHT22;24676;51.360;12.354;2023-09-18T09:05:11;28.10;54.70
38910;DHT22;24676;51.360;12.354;2023-09-18T09:07:56;28.10;54.80
38910;DHT22;24676;51.360;12.354;2023-09-18T09:10:40;28.20;52.80
38910;DHT22;24676;51.360;12.354;2023-09-18T09:13:25;28.00;53.30
38910;DHT22;24676;51.360;12.354;2023-09-18T09:16:12;28.00;53.40
38910;DHT22;24676;51.360;12.354;2023-09-18T09:18:56;27.80;53.50
38910;DHT22;24676;51.360;12.354;2023-09-18T09:21:42;27.40;53.80
38910;DHT22;24676;51.360;12.354;2023-09-18T09:24:41;26.70;55.30
38910;DHT22;24676;51.360;12.354;2023-09-18T09:27:26;26.30;56.90
38910;DHT22;24676;51.360;12.354;2023-09-18T09:30:11;25.90;58.30
38910;DHT22;24676;51.360;12.354;2023-09-18T09:32:57;25.60;58.90
38910;DHT22;24676;51.360;12.354;2023-09-18T09:35:42;25.40;60.20
38910;DHT22;24676;51.360;12.354;2023-09-18T09:38:30;25.20;61.10
38910;DHT22;24676;51.360;12.354;2023-09-18T09:41:17;25.10;61.40
38910;DHT22;24676;51.360;12.354;2023-09-18T09:44:01;25.20;62.80
38910;DHT22;24676;51.360;12.354;2023-09-18T09:46:46;25.40;62.50
38910;DHT22;24676;51.360;12.354;2023-09-18T09:49:30;25.50;62.50
38910;DHT22;24676;51.360;12.354;2023-09-18T09:52:28;25.70;61.90
38910;DHT22;24676;51.360;12.354;2023-09-18T09:58:04;25.90;61.70
38910;DHT22;24676;51.360;12.354;2023-09-18T10:00:51;26.00;62.20
38910;DHT22;24676;51.360;12.354;2023-09-18T10:03:36;26.10;62.80
38910;DHT22;24676;51.360;12.354;2023-09-18T10:06:22;26.30;63.40
38910;DHT22;24676;51.360;12.354;2023-09-18T10:09:07;26.30;62.10
38910;DHT22;24676;51.360;12.354;2023-09-18T10:11:54;26.20;62.10
38910;DHT22;24676;51.360;12.354;2023-09-18T10:14:40;26.20;62.40
38910;DHT22;24676;51.360;12.354;2023-09-18T10:17:27;26.10;62.60
38910;DHT22;24676;51.360;12.354;2023-09-18T10:20:15;26.10;63.50
38910;DHT22;24676;51.360;12.354;2023-09-18T10:23:03;26.00;63.80
38910;DHT22;24676;51.360;12.354;2023-09-18T10:25:50;25.90;64.40
38910;DHT22;24676;51.360;12.354;2023-09-18T10:28:35;25.90;64.70
38910;DHT22;24676;51.360;12.354;2023-09-18T10:31:20;25.80;65.70
38910;DHT22;24676;51.360;12.354;2023-09-18T10:34:04;25.80;66.10
38910;DHT22;24676;51.360;12.354;2023-09-18T10:36:49;25.90;66.30
38910;DHT22;24676;51.360;12.354;2023-09-18T10:39:38;26.10;66.00
38910;DHT22;24676;51.360;12.354;2023-09-18T10:42:23;26.50;64.30
38910;DHT22;24676;51.360;12.354;2023-09-18T10:45:08;27.10;64.40
38910;DHT22;24676;51.360;12.354;2023-09-18T10:47:56;27.80;59.80
38910;DHT22;24676;51.360;12.354;2023-09-18T10:50:42;28.60;59.70
38910;DHT22;24676;51.360;12.354;2023-09-18T10:53:27;29.10;57.20
38910;DHT22;24676;51.360;12.354;2023-09-18T10:56:14;29.30;55.80
38910;DHT22;24676;51.360;12.354;2023-09-18T10:58:59;29.30;57.00
38910;DHT22;24676;51.360;12.354;2023-09-18T11:01:44;29.00;56.30
38910;DHT22;24676;51.360;12.354;2023-09-18T11:04:28;28.60;56.60
38910;DHT22;24676;51.360;12.354;2023-09-18T11:07:22;28.30;58.00
38910;DHT22;24676;51.360;12.354;2023-09-18T11:10:24;28.20;57.30
38910;DHT22;24676;51.360;12.354;2023-09-18T11:13:08;28.00;57.50
38910;DHT22;24676;51.360;12.354;2023-09-18T11:15:59;27.60;58.30
38910;DHT22;24676;51.360;12.354;2023-09-18T11:18:45;27.40;58.90
38910;DHT22;24676;51.360;12.354;2023-09-18T11:21:30;27.30;60.80
38910;DHT22;24676;51.360;12.354;2023-09-18T11:24:19;27.00;61.80
38910;DHT22;24676;51.360;12.354;2023-09-18T11:27:04;27.00;62.30
38910;DHT22;24676;51.360;12.354;2023-09-18T11:29:50;26.80;62.70
38910;DHT22;24676;51.360;12.354;2023-09-18T11:32:39;26.80;62.70
38910;DHT22;24676;51.360;12.354;2023-09-18T11:35:25;27.00;64.30
38910;DHT22;24676;51.360;12.354;2023-09-18T11:38:10;27.00;62.90
38910;DHT22;24676;51.360;12.354;2023-09-18T11:40:55;27.10;62.60
38910;DHT22;24676;51.360;12.354;2023-09-18T11:43:39;27.10;61.40
38910;DHT22;24676;51.360;12.354;2023-09-18T11:46:24;27.10;62.50
38910;DHT22;24676;51.360;12.354;2023-09-18T11:49:11;27.10;60.50
38910;DHT22;24676;51.360;12.354;2023-09-18T11:51:58;26.90;62.10
38910;DHT22;24676;51.360;12.354;2023-09-18T11:54:43;26.80;62.10
38910;DHT22;24676;51.360;12.354;2023-09-18T11:57:35;26.70;66.10
38910;DHT22;24676;51.360;12.354;2023-09-18T12:00:20;26.60;66.90
38910;DHT22;24676;51.360;12.354;2023-09-18T12:03:17;26.20;68.20
38910;DHT22;24676;51.360;12.354;2023-09-18T12:06:08;26.00;70.00
38910;DHT22;24676;51.360;12.354;2023-09-18T12:08:57;25.50;74.20
38910;DHT22;24676;51.360;12.354;2023-09-18T12:11:44;25.10;75.30
38910;DHT22;24676;51.360;12.354;2023-09-18T12:14:30;24.80;82.60
38910;DHT22;24676;51.360;12.354;2023-09-18T12:17:15;24.60;88.60
38910;DHT22;24676;51.360;12.354;2023-09-18T12:20:00;24.40;92.60
38910;DHT22;24676;51.360;12.354;2023-09-18T12:22:47;24.10;95.30
38910;DHT22;24676;51.360;12.354;2023-09-18T12:25:31;24.00;97.60
38910;DHT22;24676;51.360;12.354;2023-09-18T12:28:15;24.00;99.90
38910;DHT22;24676;51.360;12.354;2023-09-18T12:31:00;23.90;99.90
38910;DHT22;24676;51.360;12.354;2023-09-18T12:33:48;23.80;99.90
38910;DHT22;24676;51.360;12.354;2023-09-18T12:36:33;23.70;99.90
38910;DHT22;24676;51.360;12.354;2023-09-18T12:39:18;23.60;99.90
38910;DHT22;24676;51.360;12.354;2023-09-18T12:42:05;23.40;99.90
38910;DHT22;24676;51.360;12.354;2023-09-18T12:44:50;23.20;99.90
38910;DHT22;24676;51.360;12.354;2023-09-18T12:47:35;23.10;99.90
38910;DHT22;24676;51.360;12.354;2023-09-18T12:50:24;23.30;99.90
38910;DHT22;24676;51.360;12.354;2023-09-18T12:53:09;23.50;99.90
38910;DHT22;24676;51.360;12.354;2023-09-18T12:55:54;23.80;99.90
38910;DHT22;24676;51.360;12.354;2023-09-18T12:58:48;23.90;99.90
38910;DHT22;24676;51.360;12.354;2023-09-18T13:01:33;24.00;99.90
38910;DHT22;24676;51.360;12.354;2023-09-18T13:04:17;24.10;99.90
38910;DHT22;24676;51.360;12.354;2023-09-18T13:09:59;24.10;99.90
38910;DHT22;24676;51.360;12.354;2023-09-18T13:12:51;24.00;99.90
38910;DHT22;24676;51.360;12.354;2023-09-18T13:15:36;23.90;99.90
38910;DHT22;24676;51.360;12.354;2023-09-18T13:18:21;24.00;99.90
38910;DHT22;24676;51.360;12.354;2023-09-18T13:21:11;23.90;99.90
38910;DHT22;24676;51.360;12.354;2023-09-18T13:23:56;23.80;99.90
38910;DHT22;24676;51.360;12.354;2023-09-18T13:26:40;23.70;99.90
38910;DHT22;24676;51.360;12.354;2023-09-18T13:29:24;23.40;99.90
38910;DHT22;24676;51.360;12.354;2023-09-18T13:32:09;23.40;99.90
38910;DHT22;24676;51.360;12.354;2023-09-18T13:34:53;23.30;99.90
38910;DHT22;24676;51.360;12.354;2023-09-18T13:37:37;23.30;99.90
38910;DHT22;24676;51.360;12.354;2023-09-18T13:40:22;23.40;99.90
38910;DHT22;24676;51.360;12.354;2023-09-18T13:43:08;23.40;99.90
38910;DHT22;24676;51.360;12.354;2023-09-18T13:45:53;23.40;99.90
38910;DHT22;24676;51.360;12.354;2023-09-18T13:48:41;23.40;99.90
38910;DHT22;24676;51.360;12.354;2023-09-18T13:51:25;23.40;99.90
38910;DHT22;24676;51.360;12.354;2023-09-18T13:54:09;23.50;99.90
38910;DHT22;24676;51.360;12.354;2023-09-18T13:56:53;23.50;99.90
38910;DHT22;24676;51.360;12.354;2023-09-18T13:59:39;23.40;99.90
38910;DHT22;24676;51.360;12.354;2023-09-18T14:02:23;23.50;99.90
38910;DHT22;24676;51.360;12.354;2023-09-18T14:05:11;23.40;99.90
38910;DHT22;24676;51.360;12.354;2023-09-18T14:07:56;23.40;99.90
38910;DHT22;24676;51.360;12.354;2023-09-18T14:10:44;23.30;99.90
38910;DHT22;24676;51.360;12.354;2023-09-18T14:13:28;23.10;99.90
38910;DHT22;24676;51.360;12.354;2023-09-18T14:16:12;22.80;99.90
38910;DHT22;24676;51.360;12.354;2023-09-18T14:18:58;22.60;99.90
38910;DHT22;24676;51.360;12.354;2023-09-18T14:21:43;22.30;99.90
38910;DHT22;24676;51.360;12.354;2023-09-18T14:24:32;22.10;99.90
38910;DHT22;24676;51.360;12.354;2023-09-18T14:27:18;21.80;99.90
38910;DHT22;24676;51.360;12.354;2023-09-18T14:30:03;21.60;99.90
38910;DHT22;24676;51.360;12.354;2023-09-18T14:32:49;21.50;99.90
38910;DHT22;24676;51.360;12.354;2023-09-18T14:35:34;21.40;99.90
38910;DHT22;24676;51.360;12.354;2023-09-18T14:38:20;21.20;99.90
38910;DHT22;24676;51.360;12.354;2023-09-18T14:41:06;21.10;99.90
38910;DHT22;24676;51.360;12.354;2023-09-18T14:43:50;21.00;99.90
38910;DHT22;24676;51.360;12.354;2023-09-18T14:46:36;21.00;99.90
38910;DHT22;24676;51.360;12.354;2023-09-18T14:49:24;20.90;99.90
38910;DHT22;24676;51.360;12.354;2023-09-18T14:52:09;20.90;99.90
38910;DHT22;24676;51.360;12.354;2023-09-18T14:54:53;20.80;99.90
38910;DHT22;24676;51.360;12.354;2023-09-18T14:57:37;20.60;99.90
38910;DHT22;24676;51.360;12.354;2023-09-18T15:00:22;20.50;99.90
38910;DHT22;24676;51.360;12.354;2023-09-18T15:03:06;20.40;99.90
38910;DHT22;24676;51.360;12.354;2023-09-18T15:05:51;20.40;99.90
38910;DHT22;24676;51.360;12.354;2023-09-18T15:08:37;20.30;99.90
38910;DHT22;24676;51.360;12.354;2023-09-18T15:11:21;20.30;99.90
38910;DHT22;24676;51.360;12.354;2023-09-18T15:14:06;20.30;99.90
38910;DHT22;24676;51.360;12.354;2023-09-18T15:16:53;20.30;99.90
38910;DHT22;24676;51.360;12.354;2023-09-18T15:19:39;20.30;99.90
38910;DHT22;24676;51.360;12.354;2023-09-18T15:22:24;20.30;99.90
38910;DHT22;24676;51.360;12.354;2023-09-18T15:25:08;20.30;99.90
38910;DHT22;24676;51.360;12.354;2023-09-18T15:27:53;20.30;99.90
38910;DHT22;24676;51.360;12.354;2023-09-18T15:30:38;20.30;99.90
38910;DHT22;24676;51.360;12.354;2023-09-18T15:33:22;20.30;99.90
38910;DHT22;24676;51.360;12.354;2023-09-18T15:36:07;20.40;99.90
38910;DHT22;24676;51.360;12.354;2023-09-18T15:38:51;20.40;99.90
38910;DHT22;24676;51.360;12.354;2023-09-18T15:41:36;20.40;99.90
38910;DHT22;24676;51.360;12.354;2023-09-18T15:44:22;20.40;99.90
38910;DHT22;24676;51.360;12.354;2023-09-18T15:47:07;20.50;99.90
38910;DHT22;24676;51.360;12.354;2023-09-18T15:49:51;20.50;99.90
38910;DHT22;24676;51.360;12.354;2023-09-18T15:52:36;20.60;99.90
38910;DHT22;24676;51.360;12.354;2023-09-18T15:55:20;20.60;99.90
38910;DHT22;24676;51.360;12.354;2023-09-18T15:58:05;20.70;99.90
38910;DHT22;24676;51.360;12.354;2023-09-18T16:00:51;20.70;99.90
38910;DHT22;24676;51.360;12.354;2023-09-18T16:03:35;20.60;99.90
38910;DHT22;24676;51.360;12.354;2023-09-18T16:06:19;20.60;99.90
38910;DHT22;24676;51.360;12.354;2023-09-18T16:09:04;20.50;99.90
38910;DHT22;24676;51.360;12.354;2023-09-18T16:11:50;20.50;99.90
38910;DHT22;24676;51.360;12.354;2023-09-18T16:14:34;20.50;99.90
38910;DHT22;24676;51.360;12.354;2023-09-18T16:17:18;20.40;99.90
38910;DHT22;24676;51.360;12.354;2023-09-18T16:20:03;20.40;99.90
38910;DHT22;24676;51.360;12.354;2023-09-18T16:22:49;20.40;99.90
38910;DHT22;24676;51.360;12.354;2023-09-18T16:25:33;20.40;99.90
38910;DHT22;24676;51.360;12.354;2023-09-18T16:28:18;20.40;99.90
38910;DHT22;24676;51.360;12.354;2023-09-18T16:31:02;20.40;99.90
38910;DHT22;24676;51.360;12.354;2023-09-18T16:33:51;20.40;99.90
38910;DHT22;24676;51.360;12.354;2023-09-18T16:36:35;20.40;99.90
38910;DHT22;24676;51.360;12.354;2023-09-18T16:39:19;20.40;99.90
38910;DHT22;24676;51.360;12.354;2023-09-18T16:42:06;20.40;99.90
38910;DHT22;24676;51.360;12.354;2023-09-18T16:44:50;20.40;99.90
38910;DHT22;24676;51.360;12.354;2023-09-18T16:47:35;20.40;99.90
38910;DHT22;24676;51.360;12.354;2023-09-18T16:50:19;20.30;99.90
38910;DHT22;24676;51.360;12.354;2023-09-18T16:53:04;20.30;99.90
38910;DHT22;24676;51.360;12.354;2023-09-18T16:55:49;20.30;99.90
38910;DHT22;24676;51.360;12.354;2023-09-18T16:58:34;20.30;99.90
38910;DHT22;24676;51.360;12.354;2023-09-18T17:01:19;20.30;99.90
38910;DHT22;24676;51.360;12.354;2023-09-18T17:04:04;20.30;99.90
38910;DHT22;24676;51.360;12.354;2023-09-18T17:06:48;20.30;99.90
38910;DHT22;24676;51.360;12.354;2023-09-18T17:09:32;20.30;99.90
38910;DHT22;24676;51.360;12.354;2023-09-18T17:12:16;20.30;99.90
38910;DHT22;24676;51.360;12.354;2023-09-18T17:15:03;20.30;99.90